Terminal Aerodrome Forecast
Issued by NWS

Home | Current Version | Previous Version | Text Only | Print | Product List | Glossary On
Versions: 1 2 3 4 5 6 7 8 9 10 11 12 13 14 15 16 17 18 19 20 21 22 23 24 25 26 27 28 29 30 31 32 33 34 35 36 37 38 39 40 41 42 43 44 45
000
FTUS43 KGRB 181700 RRA
TAFRHI
TAF
KRHI 181740Z 1818/1918 VRB03KT P6SM SCT015
      TEMPO 1818/1822 BKN015
     FM182200 VRB03KT P6SM BKN012
     FM190800 VRB03KT 5SM BR OVC010
     FM191500 19003KT 6SM BR BKN012=

USA.gov is the U.S. government's official web portal to all federal, state and local government web resources and services.